createdAt,value
2022-11-05T00:01:21.299Z,9.45
2022-11-05T00:04:42.371Z,9.39
2022-11-05T00:08:07.667Z,9.35
2022-11-05T00:11:15.236Z,9.26
2022-11-05T00:14:39.108Z,9.18
2022-11-05T00:17:41.799Z,9.13
2022-11-05T00:20:44.706Z,9.06
2022-11-05T00:24:06.164Z,9.02
2022-11-05T00:27:08.551Z,8.96
2022-11-05T00:30:12.137Z,8.89
2022-11-05T00:33:15.056Z,8.85
2022-11-05T00:36:17.736Z,8.81
2022-11-05T00:39:19.870Z,8.71
2022-11-05T00:42:41.031Z,8.58
2022-11-05T00:45:43.284Z,8.53
2022-11-05T00:49:04.523Z,8.48
2022-11-05T00:52:25.433Z,8.43
2022-11-05T00:55:30.954Z,8.43
2022-11-05T00:58:33.369Z,8.38
2022-11-05T01:01:36.315Z,8.35
2022-11-05T01:04:38.799Z,8.35
2022-11-05T01:07:41.323Z,8.30
2022-11-05T01:10:46.131Z,8.31
2022-11-05T01:13:48.610Z,8.31
2022-11-05T01:16:50.935Z,8.33
2022-11-05T01:19:53.496Z,8.30
2022-11-05T01:22:55.691Z,8.23
2022-11-05T01:25:58.405Z,8.27
2022-11-05T01:29:00.725Z,8.22
2022-11-05T01:32:03.543Z,8.21
2022-11-05T01:35:06.857Z,8.17
2022-11-05T01:38:09.466Z,8.12
2022-11-05T01:41:11.643Z,8.07
2022-11-05T01:44:33.070Z,8.05
2022-11-05T01:47:47.492Z,8.08
2022-11-05T01:50:56.323Z,8.08
2022-11-05T01:54:01.741Z,8.08
2022-11-05T01:57:06.296Z,8.01
2022-11-05T02:00:08.782Z,8.02
2022-11-05T02:03:16.677Z,8.03
2022-11-05T02:06:19.619Z,8.01
2022-11-05T02:09:21.853Z,7.96
2022-11-05T02:12:24.612Z,7.93
2022-11-05T02:15:43.208Z,7.97
2022-11-05T02:19:03.987Z,7.89
2022-11-05T02:22:25.107Z,7.87
2022-11-05T02:25:27.509Z,7.87
2022-11-05T02:28:36.366Z,7.80
2022-11-05T02:31:38.814Z,7.81
2022-11-05T02:34:50.635Z,7.76
2022-11-05T02:38:16.285Z,7.77
2022-11-05T02:41:36.827Z,7.77
2022-11-05T02:44:39.325Z,7.73
2022-11-05T02:47:45.764Z,7.72
2022-11-05T02:51:04.150Z,7.73
2022-11-05T02:54:06.435Z,7.73
2022-11-05T02:57:08.948Z,7.68
2022-11-05T03:00:30.023Z,7.66
2022-11-05T03:03:35.689Z,7.68
2022-11-05T03:06:53.033Z,7.68
2022-11-05T03:09:55.508Z,7.64
2022-11-05T03:13:04.447Z,7.63
2022-11-05T03:16:11.919Z,7.60
2022-11-05T03:19:19.883Z,7.64
2022-11-05T03:22:31.185Z,7.67
2022-11-05T03:25:37.300Z,7.66
2022-11-05T03:28:42.671Z,7.66
2022-11-05T03:31:46.993Z,7.63
2022-11-05T03:34:56.875Z,7.64
2022-11-05T03:38:02.545Z,7.70
2022-11-05T03:41:07.787Z,7.66
2022-11-05T03:44:12.742Z,7.69
2022-11-05T03:47:17.286Z,7.65
2022-11-05T03:50:34.767Z,7.62
2022-11-05T03:53:43.521Z,7.63
2022-11-05T03:56:51.970Z,7.63
2022-11-05T03:59:54.467Z,7.63
2022-11-05T04:02:56.761Z,7.61
2022-11-05T04:06:17.849Z,7.57
2022-11-05T04:09:38.628Z,7.55
2022-11-05T04:13:00.020Z,7.58
2022-11-05T04:16:20.845Z,7.54
2022-11-05T04:19:41.909Z,7.53
2022-11-05T04:23:02.547Z,7.46
2022-11-05T04:26:05.049Z,7.49
2022-11-05T04:29:26.158Z,7.48
2022-11-05T04:32:28.588Z,7.46
2022-11-05T04:35:33.822Z,7.42
2022-11-05T04:38:36.298Z,7.41
2022-11-05T04:41:38.459Z,7.41
2022-11-05T04:44:40.919Z,7.43
2022-11-05T04:47:43.074Z,7.44
2022-11-05T04:50:45.603Z,7.43
2022-11-05T04:53:47.828Z,7.39
2022-11-05T04:56:52.627Z,7.36
2022-11-05T04:59:55.198Z,7.34
2022-11-05T05:02:57.651Z,7.42
2022-11-05T05:06:03.812Z,7.45
2022-11-05T05:09:06.673Z,7.43
2022-11-05T05:12:08.934Z,7.40
2022-11-05T05:15:11.425Z,7.42
2022-11-05T05:18:13.607Z,7.43
2022-11-05T05:21:35.414Z,7.49
2022-11-05T05:24:37.789Z,7.51
2022-11-05T05:27:40.282Z,7.51
2022-11-05T05:30:43.078Z,7.55
2022-11-05T05:33:45.615Z,7.54
2022-11-05T05:36:47.779Z,7.51
2022-11-05T05:39:50.385Z,7.54
2022-11-05T05:42:55.874Z,7.55
2022-11-05T05:46:05.489Z,7.57
2022-11-05T05:49:12.516Z,7.57
2022-11-05T05:52:15.281Z,7.60
2022-11-05T05:55:17.568Z,7.57
2022-11-05T05:58:20.246Z,7.63
2022-11-05T06:01:22.553Z,7.62
2022-11-05T06:04:25.081Z,7.63
2022-11-05T06:07:27.312Z,7.68
2022-11-05T06:10:29.914Z,7.65
2022-11-05T06:13:32.558Z,7.66
2022-11-05T06:16:35.910Z,7.69
2022-11-05T06:19:38.234Z,7.71
2022-11-05T06:22:40.887Z,7.73
2022-11-05T06:25:43.085Z,7.77
2022-11-05T06:28:46.130Z,7.79
2022-11-05T06:31:48.364Z,7.83
2022-11-05T06:34:50.891Z,7.79
2022-11-05T06:37:53.018Z,7.90
2022-11-05T06:40:58.301Z,7.95
2022-11-05T06:44:00.555Z,7.95
2022-11-05T06:47:03.038Z,7.91
2022-11-05T06:50:06.160Z,7.86
2022-11-05T06:53:09.025Z,7.86
2022-11-05T06:56:11.674Z,7.85
2022-11-05T06:59:14.151Z,7.88
2022-11-05T07:02:18.301Z,7.91
2022-11-05T07:05:20.818Z,7.92
2022-11-05T07:08:24.084Z,7.94
2022-11-05T07:11:26.942Z,7.98
2022-11-05T07:14:29.835Z,8.11
2022-11-05T07:17:32.447Z,8.23
2022-11-05T07:20:35.060Z,8.37
2022-11-05T07:23:38.007Z,8.45
2022-11-05T07:26:40.193Z,8.50
2022-11-05T07:29:42.822Z,8.56
2022-11-05T07:32:45.066Z,8.63
2022-11-05T07:35:47.569Z,8.55
2022-11-05T07:38:50.113Z,8.56
2022-11-05T07:41:54.847Z,8.62
2022-11-05T07:44:57.330Z,8.55
2022-11-05T07:48:01.135Z,8.59
2022-11-05T07:51:03.427Z,8.62
2022-11-05T07:54:05.891Z,8.77
2022-11-05T07:57:08.094Z,8.75
2022-11-05T08:00:12.858Z,8.81
2022-11-05T08:03:16.830Z,8.84
2022-11-05T08:06:19.527Z,8.87
2022-11-05T08:09:21.970Z,8.94
2022-11-05T08:12:24.202Z,9.01
2022-11-05T08:15:26.635Z,8.98
2022-11-05T08:18:32.532Z,9.06
2022-11-05T08:21:35.018Z,9.11
2022-11-05T08:24:37.265Z,9.14
2022-11-05T08:27:40.369Z,9.08
2022-11-05T08:30:44.017Z,9.28
2022-11-05T08:33:46.521Z,9.42
2022-11-05T08:36:48.713Z,9.54
2022-11-05T08:39:51.391Z,9.69
2022-11-05T08:42:56.311Z,9.99
2022-11-05T08:46:00.009Z,10.10
2022-11-05T08:49:03.277Z,10.09
2022-11-05T08:52:06.124Z,10.26
2022-11-05T08:55:08.977Z,10.36
2022-11-05T08:58:16.043Z,10.17
2022-11-05T09:01:18.967Z,9.88
2022-11-05T09:04:21.587Z,9.99
2022-11-05T09:07:23.886Z,10.08
2022-11-05T09:10:26.723Z,10.17
2022-11-05T09:13:28.973Z,10.08
2022-11-05T09:16:34.329Z,10.09
2022-11-05T09:19:39.792Z,10.01
2022-11-05T09:22:43.607Z,9.98
2022-11-05T09:25:46.342Z,9.87
2022-11-05T09:28:48.853Z,10.00
2022-11-05T09:31:51.056Z,10.13
2022-11-05T09:34:53.562Z,10.15
2022-11-05T09:38:00.756Z,10.20
2022-11-05T09:41:06.143Z,10.30
2022-11-05T09:44:20.025Z,10.38
2022-11-05T09:47:35.295Z,10.55
2022-11-05T09:50:40.629Z,10.69
2022-11-05T09:53:44.454Z,10.84
2022-11-05T09:56:46.928Z,10.97
2022-11-05T09:59:51.198Z,11.04
2022-11-05T10:02:56.459Z,11.18
2022-11-05T10:06:07.307Z,11.12
2022-11-05T10:09:17.990Z,11.29
2022-11-05T10:12:23.523Z,11.43
2022-11-05T10:15:28.894Z,11.37
2022-11-05T10:18:33.945Z,11.30
2022-11-05T10:22:04.760Z,11.21
2022-11-05T10:25:00.434Z,11.14
2022-11-05T10:28:03.771Z,11.13
2022-11-05T10:31:08.176Z,10.95
2022-11-05T10:34:13.533Z,10.74
2022-11-05T10:37:16.296Z,10.78
2022-11-05T10:40:31.466Z,11.06
2022-11-05T10:43:39.146Z,11.28
2022-11-05T10:46:44.311Z,11.41
2022-11-05T10:49:58.359Z,11.28
2022-11-05T10:53:02.637Z,11.38
2022-11-05T10:56:25.089Z,11.34
2022-11-05T10:59:28.649Z,11.43
2022-11-05T11:02:31.187Z,11.53
2022-11-05T11:05:35.953Z,11.47
2022-11-05T11:08:38.537Z,11.45
2022-11-05T11:11:42.781Z,11.57
2022-11-05T11:14:59.577Z,11.79
2022-11-05T11:18:18.246Z,11.94
2022-11-05T11:21:23.158Z,11.85
2022-11-05T11:24:32.469Z,11.91
2022-11-05T11:27:37.695Z,11.84
2022-11-05T11:30:46.451Z,11.84
2022-11-05T11:33:50.404Z,12.04
2022-11-05T11:36:55.903Z,11.99
2022-11-05T11:40:14.670Z,12.25
2022-11-05T11:43:28.139Z,12.53
2022-11-05T11:46:32.385Z,12.53
2022-11-05T11:49:49.956Z,12.45
2022-11-05T11:52:52.500Z,12.35
2022-11-05T11:55:54.764Z,12.14
2022-11-05T11:59:01.016Z,12.20
2022-11-05T12:02:12.295Z,12.33
2022-11-05T12:05:32.723Z,12.41
2022-11-05T12:08:45.286Z,12.41
2022-11-05T12:11:55.899Z,12.41
2022-11-05T12:15:01.356Z,12.43
2022-11-05T12:18:13.683Z,12.40
2022-11-05T12:21:50.948Z,12.44
2022-11-05T12:24:50.441Z,12.50
2022-11-05T12:28:01.821Z,12.52
2022-11-05T12:31:07.176Z,12.58
2022-11-05T12:34:27.554Z,12.56
2022-11-05T12:37:51.770Z,12.59
2022-11-05T12:41:14.237Z,12.60
2022-11-05T12:44:16.896Z,12.54
2022-11-05T12:47:30.559Z,12.62
2022-11-05T12:50:33.550Z,12.67
2022-11-05T12:53:42.878Z,12.65
2022-11-05T12:56:47.389Z,12.64
2022-11-05T12:59:54.963Z,12.64
2022-11-05T13:03:13.184Z,12.63
2022-11-05T13:06:21.703Z,12.66
2022-11-05T13:09:28.223Z,12.59
2022-11-05T13:12:32.154Z,12.62
2022-11-05T13:15:40.168Z,12.63
2022-11-05T13:18:54.003Z,12.58
2022-11-05T13:22:09.643Z,12.55
2022-11-05T13:25:26.489Z,12.43
2022-11-05T13:28:29.163Z,12.47
2022-11-05T13:31:34.403Z,12.36
2022-11-05T13:34:37.881Z,12.30
2022-11-05T13:38:01.331Z,12.19
2022-11-05T13:41:22.967Z,12.14
2022-11-05T13:44:37.365Z,12.10
2022-11-05T13:47:43.115Z,12.13
2022-11-05T13:51:05.914Z,12.13
2022-11-05T13:54:27.833Z,12.16
2022-11-05T13:57:30.191Z,12.06
2022-11-05T14:00:35.924Z,12.00
2022-11-05T14:03:44.754Z,11.95
2022-11-05T14:06:47.648Z,11.95
2022-11-05T14:09:55.888Z,11.88
2022-11-05T14:13:00.730Z,11.80
2022-11-05T14:16:20.694Z,11.77
2022-11-05T14:19:32.502Z,11.70
2022-11-05T14:22:40.135Z,11.68
2022-11-05T14:25:42.496Z,11.64
2022-11-05T14:29:08.802Z,11.61
2022-11-05T14:32:17.477Z,11.63
2022-11-05T14:35:20.125Z,11.61
2022-11-05T14:38:27.328Z,11.61
2022-11-05T14:41:30.096Z,11.59
2022-11-05T14:44:33.913Z,11.58
2022-11-05T14:47:39.594Z,11.58
2022-11-05T14:50:46.356Z,11.50
2022-11-05T14:53:49.235Z,11.54
2022-11-05T14:56:59.435Z,11.55
2022-11-05T15:00:05.667Z,11.49
2022-11-05T15:03:29.301Z,11.46
2022-11-05T15:06:32.024Z,11.44
2022-11-05T15:09:40.448Z,11.42
2022-11-05T15:12:43.244Z,11.46
2022-11-05T15:15:47.183Z,11.42
2022-11-05T15:18:51.152Z,11.45
2022-11-05T15:21:54.692Z,11.40
2022-11-05T15:25:37.837Z,11.42
2022-11-05T15:28:46.004Z,11.36
2022-11-05T15:31:49.282Z,11.40
2022-11-05T15:34:54.219Z,11.45
2022-11-05T15:38:02.190Z,11.36
2022-11-05T15:41:17.538Z,11.37
2022-11-05T15:44:27.675Z,11.33
2022-11-05T15:47:31.839Z,11.25
2022-11-05T15:50:35.618Z,11.22
2022-11-05T15:54:15.562Z,11.11
2022-11-05T15:57:17.461Z,11.10
2022-11-05T16:00:21.473Z,11.05
2022-11-05T16:03:33.858Z,11.06
2022-11-05T16:06:38.818Z,11.02
2022-11-05T16:09:43.893Z,11.00
2022-11-05T16:12:50.123Z,11.10
2022-11-05T16:15:54.266Z,11.12
2022-11-05T16:18:56.867Z,11.09
2022-11-05T16:22:01.902Z,11.00
2022-11-05T16:25:24.114Z,11.02
2022-11-05T16:28:28.506Z,10.95
2022-11-05T16:31:32.422Z,10.89
2022-11-05T16:34:42.700Z,10.93
2022-11-05T16:37:49.277Z,10.89
2022-11-05T16:40:54.595Z,10.88
2022-11-05T16:43:59.481Z,10.81
2022-11-05T16:47:02.505Z,10.78
2022-11-05T16:50:11.708Z,10.71
2022-11-05T16:53:14.491Z,10.72
2022-11-05T16:56:18.580Z,10.62
2022-11-05T16:59:21.384Z,10.45
2022-11-05T17:02:23.984Z,10.37
2022-11-05T17:05:34.504Z,10.44
2022-11-05T17:08:37.024Z,10.26
2022-11-05T17:11:39.835Z,10.13
2022-11-05T17:14:42.377Z,10.05
2022-11-05T17:17:45.550Z,9.99
2022-11-05T17:20:49.374Z,9.86
2022-11-05T17:23:52.407Z,9.80
2022-11-05T17:26:54.942Z,9.81
2022-11-05T17:29:57.721Z,9.81
2022-11-05T17:33:00.455Z,9.85
2022-11-05T17:36:07.727Z,9.79
2022-11-05T17:39:11.550Z,9.86
2022-11-05T17:42:14.263Z,9.88
2022-11-05T17:45:17.170Z,9.78
2022-11-05T17:48:21.508Z,9.66
2022-11-05T17:51:23.975Z,9.64
2022-11-05T17:54:27.792Z,9.62
2022-11-05T17:57:30.415Z,9.66
2022-11-05T18:00:33.827Z,9.59
2022-11-05T18:03:36.553Z,9.60
2022-11-05T18:06:39.697Z,9.62
2022-11-05T18:09:42.814Z,9.64
2022-11-05T18:12:45.918Z,9.61
2022-11-05T18:15:51.689Z,9.53
2022-11-05T18:18:54.565Z,9.53
2022-11-05T18:21:57.258Z,9.52
2022-11-05T18:25:00.867Z,9.50
2022-11-05T18:28:03.695Z,9.47
2022-11-05T18:31:16.863Z,9.51
2022-11-05T18:34:21.291Z,9.50
2022-11-05T18:37:23.993Z,9.52
2022-11-05T18:40:27.971Z,9.61
2022-11-05T18:43:32.254Z,9.56
2022-11-05T18:49:57.979Z,9.55
2022-11-05T18:53:01.165Z,9.58
2022-11-05T18:56:10.968Z,9.52
2022-11-05T19:02:40.753Z,9.46
2022-11-05T19:05:44.135Z,9.50
2022-11-05T19:08:47.178Z,9.48
2022-11-05T19:11:50.973Z,9.49
2022-11-05T19:14:56.726Z,9.44
2022-11-05T19:18:03.828Z,9.43
2022-11-05T19:21:09.984Z,9.44
2022-11-05T19:24:20.359Z,9.42
2022-11-05T19:27:23.788Z,9.49
2022-11-05T19:30:27.158Z,9.45
2022-11-05T19:33:30.058Z,9.44
2022-11-05T19:36:33.299Z,9.43
2022-11-05T19:39:36.242Z,9.45
2022-11-05T19:42:40.467Z,9.44
2022-11-05T19:45:45.097Z,9.43
2022-11-05T19:48:48.669Z,9.48
2022-11-05T19:51:51.556Z,9.42
2022-11-05T19:54:54.590Z,9.46
2022-11-05T19:57:57.075Z,9.43
2022-11-05T20:01:00.032Z,9.48
2022-11-05T20:04:04.741Z,9.48
2022-11-05T20:07:07.349Z,9.52
2022-11-05T20:10:10.919Z,9.54
2022-11-05T20:13:19.516Z,9.49
2022-11-05T20:16:24.170Z,9.49
2022-11-05T20:19:26.922Z,9.50
2022-11-05T20:22:30.185Z,9.55
2022-11-05T20:25:33.214Z,9.59
2022-11-05T20:28:37.136Z,9.49
2022-11-05T20:31:39.613Z,9.58
2022-11-05T20:34:42.702Z,9.61
2022-11-05T20:37:48.561Z,9.56
2022-11-05T20:40:55.577Z,9.52
2022-11-05T20:43:58.059Z,9.56
2022-11-05T20:47:00.897Z,9.54
2022-11-05T20:50:04.539Z,9.54
2022-11-05T20:53:08.262Z,9.51
2022-11-05T20:56:17.969Z,9.50
2022-11-05T20:59:20.810Z,9.53
2022-11-05T21:02:23.812Z,9.55
2022-11-05T21:05:30.073Z,9.54
2022-11-05T21:08:37.433Z,9.55
2022-11-05T21:11:59.006Z,9.55
2022-11-05T21:15:01.476Z,9.55
2022-11-05T21:18:04.544Z,9.59
2022-11-05T21:21:08.252Z,9.56
2022-11-05T21:24:11.028Z,9.53
2022-11-05T21:27:13.551Z,9.55
2022-11-05T21:30:16.614Z,9.50
2022-11-05T21:33:19.129Z,9.50
2022-11-05T21:36:21.850Z,9.44
2022-11-05T21:39:24.950Z,9.47
2022-11-05T21:42:28.958Z,9.43
2022-11-05T21:45:31.588Z,9.40
2022-11-05T21:48:34.369Z,9.32
2022-11-05T21:51:55.559Z,9.36
2022-11-05T21:55:16.735Z,9.37
2022-11-05T21:58:38.108Z,9.30
2022-11-05T22:01:40.632Z,9.35
2022-11-05T22:04:44.789Z,9.36
2022-11-05T22:07:47.137Z,9.34
2022-11-05T22:10:49.620Z,9.32
2022-11-05T22:13:52.207Z,9.30
2022-11-05T22:16:54.786Z,9.22
2022-11-05T22:19:57.622Z,9.24
2022-11-05T22:23:00.167Z,9.23
2022-11-05T22:26:02.899Z,9.26
2022-11-05T22:29:05.801Z,9.18
2022-11-05T22:32:08.069Z,9.21
2022-11-05T22:35:10.649Z,9.16
2022-11-05T22:38:13.293Z,9.22
2022-11-05T22:41:17.557Z,9.29
2022-11-05T22:44:19.830Z,9.34
2022-11-05T22:47:22.392Z,9.30
2022-11-05T22:50:24.882Z,9.28
2022-11-05T22:53:27.411Z,9.28
2022-11-05T22:56:31.040Z,9.31
2022-11-05T22:59:33.776Z,9.38
2022-11-05T23:02:36.094Z,9.37
2022-11-05T23:05:38.827Z,9.34
2022-11-05T23:08:59.778Z,9.26
2022-11-05T23:12:03.305Z,9.29
2022-11-05T23:15:07.884Z,9.23
2022-11-05T23:18:29.168Z,9.35
2022-11-05T23:21:49.833Z,9.30
2022-11-05T23:24:52.390Z,9.32
2022-11-05T23:27:55.045Z,9.34
2022-11-05T23:31:16.073Z,9.33
2022-11-05T23:34:18.290Z,9.30
2022-11-05T23:37:39.954Z,9.21
2022-11-05T23:41:02.094Z,9.21
2022-11-05T23:44:23.415Z,9.24
2022-11-05T23:47:44.337Z,9.31
2022-11-05T23:51:07.075Z,9.32
2022-11-05T23:54:09.361Z,9.34
2022-11-05T23:57:11.842Z,9.25
